No particular awareness of the weather is required.    There are no Weather-warnings


Meteo18 Weather Cam more information Meteo18 Weather Cam


Thunder radar more information blitzortung!


Rain radar more information rain snow radar


Visit our other weather sites:

Template documentation
and downloads

And another site



Weather Underground History page Text

Daily Summary for February 15, 2018 Units:  Both    English   Metric
« Previous Day
Next Day »
Daily Weekly Monthly Yearly Custom
  High: Low: Average:
Temperature: TemperatureC °F /  -17.8 °C 3.6 °F /  -15.8 °C 9.1 °F /  -12.7 °C
Dew Point: DewpointC °F /  -17.8 °C 2.4 °F /  -16.4 °C 8.5 °F /  -13.1 °C
Humidity: Humidity % 91 % 96 %
Wind Speed: WindSpeedKMH mph /  0 km/h - 7.1 mph /  11.4 km/h
Wind Gust: WindSpeedGustKMH mph /  0 km/h - -
Wind:- - SW
Pressure: PressurehPa in /  0 hPa 1011.4 in /  34246 hPa -
Precipitation: 6.3 in /  160.02 mm    
Historical Graphs
 
 
Tabular Data for February 15, 2018
Time Temperature Dew Point Pressure Wind Wind Speed Wind Gust Humidity Rainfall Rate (Hourly)
TemperatureC °F /  -17.8 °C DewpointC °F /  -17.8 °C PressurehPa in /  0 hPa Calm     Humidity % HourlyPrecipMM in /  0 mm
00:02 3.7 °F /  -15.7 °C 2.4 °F /  -16.4 °C 1012.4 in /  34279.9 hPa SSE 3.2 mph /  5.1 km/h 11.3 mph /  18.2 km/h 91 % 1.3 in /  33.02 mm
00:08 3.7 °F /  -15.7 °C 2.5 °F /  -16.4 °C 1012.1 in /  34269.7 hPa SSE 6.4 mph /  10.3 km/h 8.0 mph /  12.9 km/h 92 % 1.5 in /  38.1 mm
00:14 3.7 °F /  -15.7 °C 2.5 °F /  -16.4 °C 1012.1 in /  34269.7 hPa SSE 3.2 mph /  5.1 km/h 8.0 mph /  12.9 km/h 92 % 1.5 in /  38.1 mm
00:20 3.7 °F /  -15.7 °C 2.5 °F /  -16.4 °C 1012.1 in /  34269.7 hPa SSE 1.4 mph /  2.3 km/h 11.3 mph /  18.2 km/h 92 % 1.5 in /  38.1 mm
00:26 3.6 °F /  -15.8 °C 2.4 °F /  -16.4 °C 1012.1 in /  34269.7 hPa South 3.2 mph /  5.1 km/h 12.9 mph /  20.8 km/h 92 % 1.5 in /  38.1 mm
00:32 3.6 °F /  -15.8 °C 2.4 °F /  -16.4 °C 1012.1 in /  34269.7 hPa SE 1.4 mph /  2.3 km/h 11.3 mph /  18.2 km/h 92 % 1.5 in /  38.1 mm
00:38 3.6 °F /  -15.8 °C 2.6 °F /  -16.3 °C 1012.1 in /  34269.7 hPa SSW 1.4 mph /  2.3 km/h 8.0 mph /  12.9 km/h 93 % 1.5 in /  38.1 mm
00:44 3.6 °F /  -15.8 °C 2.6 °F /  -16.3 °C 1012.1 in /  34269.7 hPa South 7.9 mph /  12.7 km/h 9.7 mph /  15.6 km/h 93 % 1.5 in /  38.1 mm
00:50 3.6 °F /  -15.8 °C 2.6 °F /  -16.3 °C 1012.1 in /  34269.7 hPa SE 1.4 mph /  2.3 km/h 11.3 mph /  18.2 km/h 93 % 1.5 in /  38.1 mm
01:07 3.6 °F /  -15.8 °C 2.7 °F /  -16.3 °C 1011.7 in /  34256.2 hPa ESE 6.4 mph /  10.3 km/h 11.3 mph /  18.2 km/h 94 % 1.0 in /  25.4 mm
01:14 3.6 °F /  -15.8 °C 2.7 °F /  -16.3 °C 1011.7 in /  34256.2 hPa South 6.4 mph /  10.3 km/h 11.3 mph /  18.2 km/h 94 % 1.5 in /  38.1 mm
01:20 3.6 °F /  -15.8 °C 2.7 °F /  -16.3 °C 1011.7 in /  34256.2 hPa ESE 6.4 mph /  10.3 km/h 9.7 mph /  15.6 km/h 94 % 1.5 in /  38.1 mm
01:26 3.6 °F /  -15.8 °C 2.9 °F /  -16.2 °C 1011.7 in /  34256.2 hPa SSE 4.7 mph /  7.6 km/h 9.7 mph /  15.6 km/h 95 % 1.3 in /  33.02 mm
01:36 3.6 °F /  -15.8 °C 2.9 °F /  -16.2 °C 1011.7 in /  34256.2 hPa South 3.2 mph /  5.1 km/h 9.7 mph /  15.6 km/h 95 % 1.5 in /  38.1 mm
01:42 3.6 °F /  -15.8 °C 2.9 °F /  -16.2 °C 1011.7 in /  34256.2 hPa SE 4.7 mph /  7.6 km/h 9.7 mph /  15.6 km/h 95 % 1.5 in /  38.1 mm
01:48 3.7 °F /  -15.7 °C 3.1 °F /  -16.1 °C 1011.4 in /  34246 hPa SSE 4.7 mph /  7.6 km/h 9.7 mph /  15.6 km/h 96 % 1.5 in /  38.1 mm
01:54 3.7 °F /  -15.7 °C 3.1 °F /  -16.1 °C 1011.4 in /  34246 hPa South 1.4 mph /  2.3 km/h 8.0 mph /  12.9 km/h 96 % 1.5 in /  38.1 mm
02:00 3.7 °F /  -15.7 °C 3.1 °F /  -16.1 °C 1011.7 in /  34256.2 hPa SSW 6.4 mph /  10.3 km/h 8.0 mph /  12.9 km/h 96 % 1.5 in /  38.1 mm
02:06 3.8 °F /  -15.7 °C 3.2 °F /  -16 °C 1011.7 in /  34256.2 hPa SSW 6.4 mph /  10.3 km/h 8.0 mph /  12.9 km/h 96 % 1.3 in /  33.02 mm
02:12 3.8 °F /  -15.7 °C 3.2 °F /  -16 °C 1011.7 in /  34256.2 hPa SSW 7.9 mph /  12.7 km/h 11.3 mph /  18.2 km/h 96 % 1.0 in /  25.4 mm
02:18 3.8 °F /  -15.7 °C 3.2 °F /  -16 °C 1011.4 in /  34246 hPa SSE 1.4 mph /  2.3 km/h 9.7 mph /  15.6 km/h 96 % 0.5 in /  12.7 mm
02:24 3.9 °F /  -15.6 °C 3.3 °F /  -15.9 °C 1011.4 in /  34246 hPa SSE 6.4 mph /  10.3 km/h 14.5 mph /  23.3 km/h 96 % 0.8 in /  20.32 mm
02:30 3.9 °F /  -15.6 °C 3.3 °F /  -15.9 °C 1011.4 in /  34246 hPa SSE 3.2 mph /  5.1 km/h 11.3 mph /  18.2 km/h 96 % 0.5 in /  12.7 mm
02:36 4.0 °F /  -15.6 °C 3.4 °F /  -15.9 °C 1011.4 in /  34246 hPa SSE 9.7 mph /  15.6 km/h 9.7 mph /  15.6 km/h 96 % 0.5 in /  12.7 mm
02:42 4.0 °F /  -15.6 °C 3.6 °F /  -15.8 °C 1011.7 in /  34256.2 hPa SSE 6.4 mph /  10.3 km/h 8.0 mph /  12.9 km/h 97 % 0.5 in /  12.7 mm
02:48 4.1 °F /  -15.5 °C 3.7 °F /  -15.7 °C 1011.7 in /  34256.2 hPa SSE 4.7 mph /  7.6 km/h 8.0 mph /  12.9 km/h 97 % 0.5 in /  12.7 mm
02:54 4.1 °F /  -15.5 °C 3.7 °F /  -15.7 °C 1011.4 in /  34246 hPa SSE 3.2 mph /  5.1 km/h 6.4 mph /  10.3 km/h 97 % 0.5 in /  12.7 mm
03:00 4.2 °F /  -15.4 °C 3.8 °F /  -15.7 °C 1011.7 in /  34256.2 hPa South 3.2 mph /  5.1 km/h 11.3 mph /  18.2 km/h 97 % 0.5 in /  12.7 mm
03:06 4.2 °F /  -15.4 °C 3.8 °F /  -15.7 °C 1011.7 in /  34256.2 hPa SSE 1.4 mph /  2.3 km/h 11.3 mph /  18.2 km/h 97 % 0.5 in /  12.7 mm
03:12 4.2 °F /  -15.4 °C 3.8 °F /  -15.7 °C 1011.7 in /  34256.2 hPa SSE 3.2 mph /  5.1 km/h 9.7 mph /  15.6 km/h 97 % 0.5 in /  12.7 mm
03:18 4.2 °F /  -15.4 °C 3.8 °F /  -15.7 °C 1011.7 in /  34256.2 hPa SW 4.7 mph /  7.6 km/h 9.7 mph /  15.6 km/h 97 % 0.5 in /  12.7 mm
03:24 4.2 °F /  -15.4 °C 3.8 °F /  -15.7 °C 1011.7 in /  34256.2 hPa South 4.7 mph /  7.6 km/h 9.7 mph /  15.6 km/h 97 % 0.3 in /  7.62 mm
03:30 4.2 °F /  -15.4 °C 3.8 °F /  -15.7 °C 1011.4 in /  34246 hPa Calm   6.4 mph /  10.3 km/h 97 % 0.5 in /  12.7 mm
03:36 4.3 °F /  -15.4 °C 3.9 °F /  -15.6 °C 1011.4 in /  34246 hPa South 3.2 mph /  5.1 km/h 4.8 mph /  7.7 km/h 97 % 0.5 in /  12.7 mm
03:42 4.3 °F /  -15.4 °C 3.9 °F /  -15.6 °C 1011.4 in /  34246 hPa SSW 6.4 mph /  10.3 km/h 8.0 mph /  12.9 km/h 97 % 0.5 in /  12.7 mm
03:48 4.4 °F /  -15.3 °C 4.0 °F /  -15.6 °C 1011.4 in /  34246 hPa SSW 3.2 mph /  5.1 km/h 4.8 mph /  7.7 km/h 97 % 0.5 in /  12.7 mm
03:54 4.4 °F /  -15.3 °C 4.0 °F /  -15.6 °C 1011.4 in /  34246 hPa Calm   6.4 mph /  10.3 km/h 97 % 0.3 in /  7.62 mm
04:00 4.4 °F /  -15.3 °C 4.0 °F /  -15.6 °C 1011.4 in /  34246 hPa SSE 1.4 mph /  2.3 km/h 4.8 mph /  7.7 km/h 97 % 0.5 in /  12.7 mm
04:06 4.5 °F /  -15.3 °C 4.1 °F /  -15.5 °C 1011.7 in /  34256.2 hPa South 1.4 mph /  2.3 km/h 3.2 mph /  5.1 km/h 97 % 0.5 in /  12.7 mm
04:12 4.6 °F /  -15.2 °C 4.2 °F /  -15.4 °C 1011.4 in /  34246 hPa SSE 6.4 mph /  10.3 km/h 6.4 mph /  10.3 km/h 97 % 0.5 in /  12.7 mm
04:19 4.7 °F /  -15.2 °C 4.3 °F /  -15.4 °C 1011.4 in /  34246 hPa Calm   4.8 mph /  7.7 km/h 97 % 0.5 in /  12.7 mm
04:25 4.7 °F /  -15.2 °C 4.3 °F /  -15.4 °C 1011.4 in /  34246 hPa Calm   3.2 mph /  5.1 km/h 97 % 0.5 in /  12.7 mm
04:31 4.7 °F /  -15.2 °C 4.3 °F /  -15.4 °C 1011.4 in /  34246 hPa Calm   1.6 mph /  2.6 km/h 97 % 0.5 in /  12.7 mm
04:37 4.8 °F /  -15.1 °C 4.4 °F /  -15.3 °C 1011.4 in /  34246 hPa SSE 1.4 mph /  2.3 km/h 3.2 mph /  5.1 km/h 97 % 0.5 in /  12.7 mm
04:43 4.8 °F /  -15.1 °C 4.4 °F /  -15.3 °C 1011.4 in /  34246 hPa Calm   1.6 mph /  2.6 km/h 97 % 0.5 in /  12.7 mm
04:49 4.8 °F /  -15.1 °C 4.4 °F /  -15.3 °C 1011.7 in /  34256.2 hPa Calm   1.6 mph /  2.6 km/h 97 % 0.8 in /  20.32 mm
04:55 4.9 °F /  -15.1 °C 4.5 °F /  -15.3 °C 1011.7 in /  34256.2 hPa SSE 1.4 mph /  2.3 km/h 1.6 mph /  2.6 km/h 97 % 0.8 in /  20.32 mm
05:01 4.9 °F /  -15.1 °C 4.5 °F /  -15.3 °C 1011.7 in /  34256.2 hPa SSE 1.4 mph /  2.3 km/h 1.6 mph /  2.6 km/h 97 % 0.5 in /  12.7 mm
05:07 4.9 °F /  -15.1 °C 4.5 °F /  -15.3 °C 1011.7 in /  34256.2 hPa SSE 1.4 mph /  2.3 km/h 1.6 mph /  2.6 km/h 97 % 0.8 in /  20.32 mm
05:13 5.1 °F /  -14.9 °C 4.7 °F /  -15.2 °C 1011.7 in /  34256.2 hPa South 1.4 mph /  2.3 km/h 1.6 mph /  2.6 km/h 97 % 0.8 in /  20.32 mm
05:19 5.3 °F /  -14.8 °C 5.0 °F /  -15 °C 1011.7 in /  34256.2 hPa SSW 1.4 mph /  2.3 km/h 4.8 mph /  7.7 km/h 98 % 0.8 in /  20.32 mm
05:25 5.5 °F /  -14.7 °C 5.2 °F /  -14.9 °C 1011.7 in /  34256.2 hPa South 1.4 mph /  2.3 km/h 4.8 mph /  7.7 km/h 98 % 0.5 in /  12.7 mm
05:31 5.6 °F /  -14.7 °C 5.3 °F /  -14.8 °C 1011.7 in /  34256.2 hPa SSW 3.2 mph /  5.1 km/h 6.4 mph /  10.3 km/h 98 % 0.5 in /  12.7 mm
05:37 5.7 °F /  -14.6 °C 5.4 °F /  -14.8 °C 1011.7 in /  34256.2 hPa SSW 3.2 mph /  5.1 km/h 6.4 mph /  10.3 km/h 98 % 0.5 in /  12.7 mm
05:43 5.8 °F /  -14.6 °C 5.5 °F /  -14.7 °C 1012.1 in /  34269.7 hPa SSW 4.7 mph /  7.6 km/h 4.8 mph /  7.7 km/h 98 % 0.5 in /  12.7 mm
05:49 5.8 °F /  -14.6 °C 5.5 °F /  -14.7 °C 1012.1 in /  34269.7 hPa SW 4.7 mph /  7.6 km/h 4.8 mph /  7.7 km/h 98 % 0.3 in /  7.62 mm
05:55 5.8 °F /  -14.6 °C 5.5 °F /  -14.7 °C 1012.1 in /  34269.7 hPa SSW 3.2 mph /  5.1 km/h 4.8 mph /  7.7 km/h 98 % 0.3 in /  7.62 mm
06:01 5.9 °F /  -14.5 °C 5.6 °F /  -14.7 °C 1012.1 in /  34269.7 hPa South 1.4 mph /  2.3 km/h 4.8 mph /  7.7 km/h 98 % 0.3 in /  7.62 mm
06:07 6.1 °F /  -14.4 °C 5.8 °F /  -14.6 °C 1012.4 in /  34279.9 hPa SW 4.7 mph /  7.6 km/h 6.4 mph /  10.3 km/h 98 % 0.0 in /  0 mm
06:13 6.2 °F /  -14.3 °C 5.9 °F /  -14.5 °C 1012.4 in /  34279.9 hPa SSW 3.2 mph /  5.1 km/h 6.4 mph /  10.3 km/h 98 % 0.0 in /  0 mm
06:19 6.5 °F /  -14.2 °C 6.2 °F /  -14.3 °C 1012.4 in /  34279.9 hPa SW 6.4 mph /  10.3 km/h 14.5 mph /  23.3 km/h 98 % 0.3 in /  7.62 mm
06:25 6.7 °F /  -14.1 °C 6.4 °F /  -14.2 °C 1012.4 in /  34279.9 hPa SSW 3.2 mph /  5.1 km/h 4.8 mph /  7.7 km/h 98 % 0.3 in /  7.62 mm
06:31 6.8 °F /  -14 °C 6.5 °F /  -14.2 °C 1012.4 in /  34279.9 hPa Calm   4.8 mph /  7.7 km/h 98 % 0.3 in /  7.62 mm
06:37 7.2 °F /  -13.8 °C 6.9 °F /  -13.9 °C 1012.8 in /  34293.4 hPa Calm   4.8 mph /  7.7 km/h 98 % 0.3 in /  7.62 mm
06:43 7.3 °F /  -13.7 °C 7.0 °F /  -13.9 °C 1012.8 in /  34293.4 hPa SW 1.4 mph /  2.3 km/h 4.8 mph /  7.7 km/h 98 % 0.3 in /  7.62 mm
06:49 7.4 °F /  -13.7 °C 7.1 °F /  -13.8 °C 1012.8 in /  34293.4 hPa WSW 1.4 mph /  2.3 km/h 4.8 mph /  7.7 km/h 98 % 0.3 in /  7.62 mm
06:55 7.5 °F /  -13.6 °C 7.2 °F /  -13.8 °C 1012.8 in /  34293.4 hPa WSW 4.7 mph /  7.6 km/h 11.3 mph /  18.2 km/h 98 % 0.3 in /  7.62 mm
07:01 7.6 °F /  -13.6 °C 7.3 °F /  -13.7 °C 1012.8 in /  34293.4 hPa SW 1.4 mph /  2.3 km/h 8.0 mph /  12.9 km/h 98 % 0.3 in /  7.62 mm
07:07 7.7 °F /  -13.5 °C 7.4 °F /  -13.7 °C 1012.8 in /  34293.4 hPa WSW 3.2 mph /  5.1 km/h 6.4 mph /  10.3 km/h 98 % 0.3 in /  7.62 mm
07:13 7.8 °F /  -13.4 °C 7.5 °F /  -13.6 °C 1013.1 in /  34303.6 hPa SW 3.2 mph /  5.1 km/h 6.4 mph /  10.3 km/h 98 % 0.3 in /  7.62 mm
07:19 8.1 °F /  -13.3 °C 7.8 °F /  -13.4 °C 1013.1 in /  34303.6 hPa WSW 6.4 mph /  10.3 km/h 9.7 mph /  15.6 km/h 98 % 0.0 in /  0 mm
07:25 8.2 °F /  -13.2 °C 7.9 °F /  -13.4 °C 1013.1 in /  34303.6 hPa WSW 1.4 mph /  2.3 km/h 12.9 mph /  20.8 km/h 98 % 0.0 in /  0 mm
07:31 8.3 °F /  -13.2 °C 8.0 °F /  -13.3 °C 1013.1 in /  34303.6 hPa West 4.7 mph /  7.6 km/h 17.7 mph /  28.5 km/h 98 % 0.0 in /  0 mm
07:37 8.4 °F /  -13.1 °C 8.1 °F /  -13.3 °C 1013.4 in /  34313.7 hPa WSW 6.4 mph /  10.3 km/h 16.1 mph /  25.9 km/h 98 % 0.0 in /  0 mm
07:43 8.5 °F /  -13.1 °C 8.2 °F /  -13.2 °C 1013.4 in /  34313.7 hPa WSW 11.1 mph /  17.9 km/h 12.9 mph /  20.8 km/h 98 % 0.0 in /  0 mm
07:49 8.5 °F /  -13.1 °C 8.2 °F /  -13.2 °C 1013.4 in /  34313.7 hPa WSW 11.1 mph /  17.9 km/h 14.5 mph /  23.3 km/h 98 % 0.0 in /  0 mm
07:55 8.6 °F /  -13 °C 8.3 °F /  -13.2 °C 1013.4 in /  34313.7 hPa SW 3.2 mph /  5.1 km/h 12.9 mph /  20.8 km/h 98 % 0.0 in /  0 mm
08:01 8.6 °F /  -13 °C 8.3 °F /  -13.2 °C 1013.4 in /  34313.7 hPa West 7.9 mph /  12.7 km/h 12.9 mph /  20.8 km/h 98 % 0.0 in /  0 mm
08:07 8.6 °F /  -13 °C 8.3 °F /  -13.2 °C 1013.8 in /  34327.3 hPa West 6.4 mph /  10.3 km/h 16.1 mph /  25.9 km/h 98 % 0.0 in /  0 mm
08:13 8.7 °F /  -12.9 °C 8.4 °F /  -13.1 °C 1013.8 in /  34327.3 hPa WSW 7.9 mph /  12.7 km/h 16.1 mph /  25.9 km/h 98 % 0.0 in /  0 mm
08:19 8.8 °F /  -12.9 °C 8.5 °F /  -13.1 °C 1013.8 in /  34327.3 hPa WSW 6.4 mph /  10.3 km/h 14.5 mph /  23.3 km/h 98 % 0.0 in /  0 mm
08:25 8.8 °F /  -12.9 °C 8.5 °F /  -13.1 °C 1014.1 in /  34337.4 hPa SW 6.4 mph /  10.3 km/h 19.3 mph /  31.1 km/h 98 % 0.0 in /  0 mm
08:31 8.9 °F /  -12.8 °C 8.6 °F /  -13 °C 1014.1 in /  34337.4 hPa WSW 13.0 mph /  20.9 km/h 14.5 mph /  23.3 km/h 98 % 0.0 in /  0 mm
08:37 8.9 °F /  -12.8 °C 8.6 °F /  -13 °C 1014.1 in /  34337.4 hPa SW 9.7 mph /  15.6 km/h 17.7 mph /  28.5 km/h 98 % 0.0 in /  0 mm
08:43 8.9 °F /  -12.8 °C 8.6 °F /  -13 °C 1014.1 in /  34337.4 hPa SW 7.9 mph /  12.7 km/h 12.9 mph /  20.8 km/h 98 % 0.0 in /  0 mm
08:49 9.0 °F /  -12.8 °C 8.7 °F /  -12.9 °C 1014.1 in /  34337.4 hPa WSW 9.7 mph /  15.6 km/h 14.5 mph /  23.3 km/h 98 % 0.0 in /  0 mm
08:55 9.1 °F /  -12.7 °C 8.8 °F /  -12.9 °C 1014.4 in /  34347.6 hPa SW 9.7 mph /  15.6 km/h 14.5 mph /  23.3 km/h 98 % 0.0 in /  0 mm
09:01 9.1 °F /  -12.7 °C 8.8 °F /  -12.9 °C 1014.4 in /  34347.6 hPa SW 6.4 mph /  10.3 km/h 12.9 mph /  20.8 km/h 98 % 0.0 in /  0 mm
09:07 9.2 °F /  -12.7 °C 8.9 °F /  -12.8 °C 1014.4 in /  34347.6 hPa SW 9.7 mph /  15.6 km/h 11.3 mph /  18.2 km/h 98 % 0.0 in /  0 mm
09:13 9.3 °F /  -12.6 °C 9.0 °F /  -12.8 °C 1014.4 in /  34347.6 hPa SW 7.9 mph /  12.7 km/h 14.5 mph /  23.3 km/h 98 % 0.0 in /  0 mm
09:19 9.2 °F /  -12.7 °C 8.9 °F /  -12.8 °C 1014.4 in /  34347.6 hPa SW 4.7 mph /  7.6 km/h 14.5 mph /  23.3 km/h 98 % 0.0 in /  0 mm
09:25 9.3 °F /  -12.6 °C 9.0 °F /  -12.8 °C 1014.8 in /  34361.1 hPa SW 4.7 mph /  7.6 km/h 11.3 mph /  18.2 km/h 98 % 0.0 in /  0 mm
09:31 9.4 °F /  -12.6 °C 9.1 °F /  -12.7 °C 1014.8 in /  34361.1 hPa SW 9.7 mph /  15.6 km/h 12.9 mph /  20.8 km/h 98 % 0.0 in /  0 mm
09:37 9.4 °F /  -12.6 °C 9.1 °F /  -12.7 °C 1014.8 in /  34361.1 hPa SW 9.7 mph /  15.6 km/h 14.5 mph /  23.3 km/h 98 % 0.0 in /  0 mm
09:43 9.5 °F /  -12.5 °C 9.2 °F /  -12.7 °C 1015.1 in /  34371.3 hPa SW 7.9 mph /  12.7 km/h 14.5 mph /  23.3 km/h 98 % 0.3 in /  7.62 mm
09:49 9.5 °F /  -12.5 °C 9.2 °F /  -12.7 °C 1015.1 in /  34371.3 hPa SW 9.7 mph /  15.6 km/h 12.9 mph /  20.8 km/h 98 % 0.3 in /  7.62 mm
09:55 9.6 °F /  -12.4 °C 9.3 °F /  -12.6 °C 1015.1 in /  34371.3 hPa SSW 7.9 mph /  12.7 km/h 12.9 mph /  20.8 km/h 98 % 0.3 in /  7.62 mm
10:01 9.7 °F /  -12.4 °C 9.4 °F /  -12.6 °C 1015.1 in /  34371.3 hPa SW 9.7 mph /  15.6 km/h 12.9 mph /  20.8 km/h 98 % 0.3 in /  7.62 mm
10:07 9.7 °F /  -12.4 °C 9.4 °F /  -12.6 °C 1015.1 in /  34371.3 hPa SW 6.4 mph /  10.3 km/h 9.7 mph /  15.6 km/h 98 % 0.3 in /  7.62 mm
10:13 9.7 °F /  -12.4 °C 9.4 °F /  -12.6 °C 1015.1 in /  34371.3 hPa SW 9.7 mph /  15.6 km/h 11.3 mph /  18.2 km/h 98 % 0.3 in /  7.62 mm
10:19 9.8 °F /  -12.3 °C 9.5 °F /  -12.5 °C 1015.1 in /  34371.3 hPa SSW 6.4 mph /  10.3 km/h 12.9 mph /  20.8 km/h 98 % 0.5 in /  12.7 mm
10:25 9.9 °F /  -12.3 °C 9.6 °F /  -12.4 °C 1015.5 in /  34384.8 hPa SW 9.7 mph /  15.6 km/h 14.5 mph /  23.3 km/h 98 % 0.5 in /  12.7 mm
10:31 9.9 °F /  -12.3 °C 9.6 °F /  -12.4 °C 1015.5 in /  34384.8 hPa SW 13.0 mph /  20.9 km/h 16.1 mph /  25.9 km/h 98 % 0.5 in /  12.7 mm
10:37 9.9 °F /  -12.3 °C 9.6 °F /  -12.4 °C 1015.5 in /  34384.8 hPa SW 9.7 mph /  15.6 km/h 14.5 mph /  23.3 km/h 98 % 0.5 in /  12.7 mm
10:43 10.1 °F /  -12.2 °C 9.8 °F /  -12.3 °C 1015.5 in /  34384.8 hPa SW 7.9 mph /  12.7 km/h 16.1 mph /  25.9 km/h 98 % 0.5 in /  12.7 mm
10:49 10.2 °F /  -12.1 °C 9.9 °F /  -12.3 °C 1015.5 in /  34384.8 hPa SSW 6.4 mph /  10.3 km/h 12.9 mph /  20.8 km/h 98 % 0.5 in /  12.7 mm
10:55 10.3 °F /  -12.1 °C 10.0 °F /  -12.2 °C 1015.5 in /  34384.8 hPa SW 6.4 mph /  10.3 km/h 12.9 mph /  20.8 km/h 98 % 0.5 in /  12.7 mm
11:01 10.4 °F /  -12 °C 10.1 °F /  -12.2 °C 1015.5 in /  34384.8 hPa SW 13.0 mph /  20.9 km/h 17.7 mph /  28.5 km/h 98 % 0.5 in /  12.7 mm
11:07 10.6 °F /  -11.9 °C 10.3 °F /  -12.1 °C 1015.5 in /  34384.8 hPa SW 13.0 mph /  20.9 km/h 16.1 mph /  25.9 km/h 98 % 0.5 in /  12.7 mm
11:13 10.6 °F /  -11.9 °C 10.3 °F /  -12.1 °C 1015.8 in /  34395 hPa West 6.4 mph /  10.3 km/h 11.3 mph /  18.2 km/h 98 % 0.5 in /  12.7 mm
11:19 10.7 °F /  -11.8 °C 10.4 °F /  -12 °C 1015.5 in /  34384.8 hPa SW 7.9 mph /  12.7 km/h 16.1 mph /  25.9 km/h 98 % 0.3 in /  7.62 mm
11:25 10.8 °F /  -11.8 °C 10.5 °F /  -11.9 °C 1015.8 in /  34395 hPa SSW 7.9 mph /  12.7 km/h 19.3 mph /  31.1 km/h 98 % 0.3 in /  7.62 mm
11:31 10.9 °F /  -11.7 °C 10.6 °F /  -11.9 °C 1015.8 in /  34395 hPa West 7.9 mph /  12.7 km/h 16.1 mph /  25.9 km/h 98 % 0.3 in /  7.62 mm
11:37 10.9 °F /  -11.7 °C 10.6 °F /  -11.9 °C 1015.8 in /  34395 hPa SW 16.3 mph /  26.2 km/h 16.3 mph /  26.2 km/h 98 % 0.3 in /  7.62 mm
11:43 11.0 °F /  -11.7 °C 10.7 °F /  -11.8 °C 1015.8 in /  34395 hPa SW 14.3 mph /  23 km/h 16.1 mph /  25.9 km/h 98 % 0.0 in /  0 mm
11:49 11.1 °F /  -11.6 °C 10.8 °F /  -11.8 °C 1015.8 in /  34395 hPa West 16.3 mph /  26.2 km/h 22.5 mph /  36.2 km/h 98 % 0.0 in /  0 mm
11:55 11.1 °F /  -11.6 °C 10.8 °F /  -11.8 °C 1016.1 in /  34405.1 hPa SW 13.0 mph /  20.9 km/h 16.1 mph /  25.9 km/h 98 % 0.0 in /  0 mm
12:01 11.2 °F /  -11.6 °C 10.9 °F /  -11.7 °C 1016.1 in /  34405.1 hPa SW 9.7 mph /  15.6 km/h 19.3 mph /  31.1 km/h 98 % 0.0 in /  0 mm
12:07 11.3 °F /  -11.5 °C 10.8 °F /  -11.8 °C 1016.1 in /  34405.1 hPa WSW 11.1 mph /  17.9 km/h 17.7 mph /  28.5 km/h 97 % 0.0 in /  0 mm
12:13 11.3 °F /  -11.5 °C 10.8 °F /  -11.8 °C 1016.1 in /  34405.1 hPa WSW 17.7 mph /  28.5 km/h 22.5 mph /  36.2 km/h 97 % 0.0 in /  0 mm
12:20 11.4 °F /  -11.4 °C 10.9 °F /  -11.7 °C 1016.1 in /  34405.1 hPa SW 9.7 mph /  15.6 km/h 20.9 mph /  33.6 km/h 97 % 0.0 in /  0 mm
12:26 11.4 °F /  -11.4 °C 10.9 °F /  -11.7 °C 1016.1 in /  34405.1 hPa SW 6.4 mph /  10.3 km/h 17.7 mph /  28.5 km/h 97 % 0.0 in /  0 mm
12:32 11.6 °F /  -11.3 °C 11.1 °F /  -11.6 °C 1016.1 in /  34405.1 hPa West 14.3 mph /  23 km/h 20.9 mph /  33.6 km/h 97 % 0.0 in /  0 mm
12:38 11.7 °F /  -11.3 °C 11.2 °F /  -11.6 °C 1016.1 in /  34405.1 hPa WSW 6.4 mph /  10.3 km/h 16.1 mph /  25.9 km/h 97 % 0.0 in /  0 mm
12:44 11.7 °F /  -11.3 °C 11.1 °F /  -11.6 °C 1016.1 in /  34405.1 hPa WSW 13.0 mph /  20.9 km/h 14.5 mph /  23.3 km/h 96 % 0.0 in /  0 mm
12:50 11.7 °F /  -11.3 °C 11.1 °F /  -11.6 °C 1016.1 in /  34405.1 hPa SSW 6.4 mph /  10.3 km/h 22.5 mph /  36.2 km/h 96 % 0.0 in /  0 mm
12:56 11.8 °F /  -11.2 °C 11.2 °F /  -11.6 °C 1016.1 in /  34405.1 hPa WSW 28.8 mph /  46.3 km/h 33.8 mph /  54.4 km/h 96 % 0.0 in /  0 mm
13:02 11.9 °F /  -11.2 °C 11.3 °F /  -11.5 °C 1016.1 in /  34405.1 hPa SSW 9.7 mph /  15.6 km/h 24.1 mph /  38.8 km/h 96 % 0.0 in /  0 mm
13:08 12.1 °F /  -11.1 °C 11.5 °F /  -11.4 °C 1016.1 in /  34405.1 hPa West 13.0 mph /  20.9 km/h 24.1 mph /  38.8 km/h 96 % 0.0 in /  0 mm
13:14 12.1 °F /  -11.1 °C 11.5 °F /  -11.4 °C 1016.1 in /  34405.1 hPa WSW 13.0 mph /  20.9 km/h 22.5 mph /  36.2 km/h 96 % 0.0 in /  0 mm
13:20 12.3 °F /  -10.9 °C 11.5 °F /  -11.4 °C 1016.1 in /  34405.1 hPa West 4.7 mph /  7.6 km/h 14.5 mph /  23.3 km/h 95 % 0.0 in /  0 mm
13:26 12.3 °F /  -10.9 °C 11.5 °F /  -11.4 °C 1016.1 in /  34405.1 hPa SW 14.3 mph /  23 km/h 20.9 mph /  33.6 km/h 95 % 0.0 in /  0 mm
13:32 12.3 °F /  -10.9 °C 11.5 °F /  -11.4 °C 1016.1 in /  34405.1 hPa SW 11.1 mph /  17.9 km/h 27.4 mph /  44.1 km/h 95 % 0.0 in /  0 mm
13:38 12.2 °F /  -11 °C 11.4 °F /  -11.4 °C 1016.5 in /  34418.7 hPa SW 11.1 mph /  17.9 km/h 20.9 mph /  33.6 km/h 95 % 0.3 in /  7.62 mm
13:44 12.2 °F /  -11 °C 11.6 °F /  -11.3 °C 1016.5 in /  34418.7 hPa SW 14.3 mph /  23 km/h 25.7 mph /  41.4 km/h 96 % 0.5 in /  12.7 mm
13:50 12.2 °F /  -11 °C 11.6 °F /  -11.3 °C 1016.5 in /  34418.7 hPa WSW 19.5 mph /  31.4 km/h 27.4 mph /  44.1 km/h 96 % 0.5 in /  12.7 mm
13:56 12.2 °F /  -11 °C 11.6 °F /  -11.3 °C 1016.5 in /  34418.7 hPa SSW 14.3 mph /  23 km/h 19.3 mph /  31.1 km/h 96 % 0.5 in /  12.7 mm
14:02 12.2 °F /  -11 °C 11.6 °F /  -11.3 °C 1016.5 in /  34418.7 hPa SW 24.1 mph /  38.8 km/h 27.4 mph /  44.1 km/h 96 % 0.5 in /  12.7 mm
14:08 12.2 °F /  -11 °C 11.6 °F /  -11.3 °C 1016.1 in /  34405.1 hPa SW 25.9 mph /  41.7 km/h 29.0 mph /  46.7 km/h 96 % 0.5 in /  12.7 mm
14:14 12.3 °F /  -10.9 °C 11.7 °F /  -11.3 °C 1016.1 in /  34405.1 hPa WSW 20.9 mph /  33.6 km/h 24.1 mph /  38.8 km/h 96 % 0.5 in /  12.7 mm
14:20 12.4 °F /  -10.9 °C 11.6 °F /  -11.3 °C 1016.1 in /  34405.1 hPa SW 17.7 mph /  28.5 km/h 27.4 mph /  44.1 km/h 95 % 0.5 in /  12.7 mm
14:26 12.4 °F /  -10.9 °C 11.6 °F /  -11.3 °C 1016.1 in /  34405.1 hPa West 4.7 mph /  7.6 km/h 25.7 mph /  41.4 km/h 95 % 0.5 in /  12.7 mm
14:32 12.6 °F /  -10.8 °C 11.7 °F /  -11.3 °C 1016.1 in /  34405.1 hPa WSW 19.5 mph /  31.4 km/h 25.7 mph /  41.4 km/h 94 % 0.5 in /  12.7 mm
14:38 12.7 °F /  -10.7 °C 11.8 °F /  -11.2 °C 1016.1 in /  34405.1 hPa West 14.3 mph /  23 km/h 25.7 mph /  41.4 km/h 94 % 0.5 in /  12.7 mm
14:44 12.8 °F /  -10.7 °C 11.9 °F /  -11.2 °C 1016.5 in /  34418.7 hPa WSW 19.5 mph /  31.4 km/h 22.5 mph /  36.2 km/h 94 % 0.3 in /  7.62 mm
14:50 12.8 °F /  -10.7 °C 11.7 °F /  -11.3 °C 1016.5 in /  34418.7 hPa SW 11.1 mph /  17.9 km/h 27.4 mph /  44.1 km/h 93 % 0.3 in /  7.62 mm
14:56 12.8 °F /  -10.7 °C 11.7 °F /  -11.3 °C 1016.5 in /  34418.7 hPa WSW 16.3 mph /  26.2 km/h 27.4 mph /  44.1 km/h 93 % 0.0 in /  0 mm
15:02 12.7 °F /  -10.7 °C 11.6 °F /  -11.3 °C 1016.5 in /  34418.7 hPa West 9.7 mph /  15.6 km/h 19.3 mph /  31.1 km/h 93 % 0.0 in /  0 mm
15:08 12.7 °F /  -10.7 °C 11.6 °F /  -11.3 °C 1016.5 in /  34418.7 hPa West 16.3 mph /  26.2 km/h 24.1 mph /  38.8 km/h 93 % 0.0 in /  0 mm
15:14 12.6 °F /  -10.8 °C 11.7 °F /  -11.3 °C 1016.5 in /  34418.7 hPa WSW 9.7 mph /  15.6 km/h 17.7 mph /  28.5 km/h 94 % 0.0 in /  0 mm
15:20 12.6 °F /  -10.8 °C 11.7 °F /  -11.3 °C 1016.5 in /  34418.7 hPa SSW 6.4 mph /  10.3 km/h 16.1 mph /  25.9 km/h 94 % 0.0 in /  0 mm
15:26 12.5 °F /  -10.8 °C 11.6 °F /  -11.3 °C 1016.5 in /  34418.7 hPa WSW 9.7 mph /  15.6 km/h 14.5 mph /  23.3 km/h 94 % 0.0 in /  0 mm
15:32 12.5 °F /  -10.8 °C 11.6 °F /  -11.3 °C 1016.5 in /  34418.7 hPa SW 11.1 mph /  17.9 km/h 19.3 mph /  31.1 km/h 94 % 0.0 in /  0 mm
15:38 12.6 °F /  -10.8 °C 11.5 °F /  -11.4 °C 1016.5 in /  34418.7 hPa SW 16.3 mph /  26.2 km/h 27.4 mph /  44.1 km/h 93 % 0.0 in /  0 mm
15:44 12.6 °F /  -10.8 °C 11.5 °F /  -11.4 °C 1016.8 in /  34428.8 hPa SW 16.3 mph /  26.2 km/h 22.5 mph /  36.2 km/h 93 % 0.0 in /  0 mm
15:50 12.5 °F /  -10.8 °C 11.4 °F /  -11.4 °C 1016.8 in /  34428.8 hPa SW 7.9 mph /  12.7 km/h 16.1 mph /  25.9 km/h 93 % 0.0 in /  0 mm
15:56 12.6 °F /  -10.8 °C 11.5 °F /  -11.4 °C 1016.8 in /  34428.8 hPa SW 17.7 mph /  28.5 km/h 25.7 mph /  41.4 km/h 93 % 0.0 in /  0 mm
16:02 12.6 °F /  -10.8 °C 11.5 °F /  -11.4 °C 1016.8 in /  34428.8 hPa SW 9.7 mph /  15.6 km/h 17.7 mph /  28.5 km/h 93 % 0.0 in /  0 mm
16:08 12.7 °F /  -10.7 °C 11.6 °F /  -11.3 °C 1016.8 in /  34428.8 hPa WSW 11.1 mph /  17.9 km/h 22.5 mph /  36.2 km/h 93 % 0.0 in /  0 mm
16:14 12.7 °F /  -10.7 °C 11.6 °F /  -11.3 °C 1016.8 in /  34428.8 hPa West 7.9 mph /  12.7 km/h 17.7 mph /  28.5 km/h 93 % 0.0 in /  0 mm
16:20 12.6 °F /  -10.8 °C 11.7 °F /  -11.3 °C 1016.8 in /  34428.8 hPa SW 13.0 mph /  20.9 km/h 14.5 mph /  23.3 km/h 94 % 0.0 in /  0 mm
16:26 12.6 °F /  -10.8 °C 11.7 °F /  -11.3 °C 1016.8 in /  34428.8 hPa West 13.0 mph /  20.9 km/h 14.5 mph /  23.3 km/h 94 % 0.0 in /  0 mm
16:32 12.5 °F /  -10.8 °C 11.7 °F /  -11.3 °C 1016.8 in /  34428.8 hPa West 7.9 mph /  12.7 km/h 16.1 mph /  25.9 km/h 95 % 0.0 in /  0 mm
16:38 12.4 °F /  -10.9 °C 11.6 °F /  -11.3 °C 1016.8 in /  34428.8 hPa SW 7.9 mph /  12.7 km/h 16.1 mph /  25.9 km/h 95 % 0.0 in /  0 mm
16:44 12.4 °F /  -10.9 °C 11.6 °F /  -11.3 °C 1016.8 in /  34428.8 hPa SSW 7.9 mph /  12.7 km/h 14.5 mph /  23.3 km/h 95 % 0.0 in /  0 mm
16:50 12.4 °F /  -10.9 °C 11.6 °F /  -11.3 °C 1017.2 in /  34442.4 hPa SW 4.7 mph /  7.6 km/h 22.5 mph /  36.2 km/h 95 % 0.0 in /  0 mm
16:56 12.4 °F /  -10.9 °C 11.6 °F /  -11.3 °C 1017.2 in /  34442.4 hPa SW 6.4 mph /  10.3 km/h 16.1 mph /  25.9 km/h 95 % 0.0 in /  0 mm
17:02 12.5 °F /  -10.8 °C 11.7 °F /  -11.3 °C 1017.2 in /  34442.4 hPa SW 13.0 mph /  20.9 km/h 19.3 mph /  31.1 km/h 95 % 0.0 in /  0 mm
17:08 12.4 °F /  -10.9 °C 11.6 °F /  -11.3 °C 1017.5 in /  34452.6 hPa West 7.9 mph /  12.7 km/h 12.9 mph /  20.8 km/h 95 % 0.0 in /  0 mm
17:14 12.4 °F /  -10.9 °C 11.6 °F /  -11.3 °C 1017.5 in /  34452.6 hPa SW 6.4 mph /  10.3 km/h 16.1 mph /  25.9 km/h 95 % 0.0 in /  0 mm
17:20 12.4 °F /  -10.9 °C 11.6 °F /  -11.3 °C 1017.5 in /  34452.6 hPa West 13.0 mph /  20.9 km/h 19.3 mph /  31.1 km/h 95 % 0.3 in /  7.62 mm
17:26 12.4 °F /  -10.9 °C 11.6 °F /  -11.3 °C 1017.5 in /  34452.6 hPa West 14.3 mph /  23 km/h 16.1 mph /  25.9 km/h 95 % 0.3 in /  7.62 mm
17:32 12.4 °F /  -10.9 °C 11.6 °F /  -11.3 °C 1017.5 in /  34452.6 hPa WSW 13.0 mph /  20.9 km/h 16.1 mph /  25.9 km/h 95 % 0.3 in /  7.62 mm
17:38 12.4 °F /  -10.9 °C 11.6 °F /  -11.3 °C 1017.5 in /  34452.6 hPa WSW 6.4 mph /  10.3 km/h 14.5 mph /  23.3 km/h 95 % 0.3 in /  7.62 mm
17:44 12.4 °F /  -10.9 °C 11.6 °F /  -11.3 °C 1017.5 in /  34452.6 hPa SW 9.7 mph /  15.6 km/h 20.9 mph /  33.6 km/h 95 % 0.3 in /  7.62 mm
17:50 12.5 °F /  -10.8 °C 11.6 °F /  -11.3 °C 1017.8 in /  34462.7 hPa WSW 16.3 mph /  26.2 km/h 17.7 mph /  28.5 km/h 94 % 0.3 in /  7.62 mm
17:56 12.5 °F /  -10.8 °C 11.6 °F /  -11.3 °C 1017.8 in /  34462.7 hPa WSW 13.0 mph /  20.9 km/h 13.0 mph /  20.9 km/h 94 % 0.3 in /  7.62 mm
18:02 12.5 °F /  -10.8 °C 11.6 °F /  -11.3 °C 1017.8 in /  34462.7 hPa WSW 7.9 mph /  12.7 km/h 14.5 mph /  23.3 km/h 94 % 0.3 in /  7.62 mm
18:08 12.5 °F /  -10.8 °C 11.6 °F /  -11.3 °C 1017.8 in /  34462.7 hPa West 16.3 mph /  26.2 km/h 17.7 mph /  28.5 km/h 94 % 0.3 in /  7.62 mm
18:14 12.4 °F /  -10.9 °C 11.5 °F /  -11.4 °C 1017.8 in /  34462.7 hPa West 7.9 mph /  12.7 km/h 19.3 mph /  31.1 km/h 94 % 0.3 in /  7.62 mm
18:20 12.4 °F /  -10.9 °C 11.5 °F /  -11.4 °C 1017.8 in /  34462.7 hPa West 14.3 mph /  23 km/h 16.1 mph /  25.9 km/h 94 % 0.0 in /  0 mm
18:26 12.4 °F /  -10.9 °C 11.5 °F /  -11.4 °C 1018.2 in /  34476.3 hPa SW 6.4 mph /  10.3 km/h 14.5 mph /  23.3 km/h 94 % 0.0 in /  0 mm
18:32 12.3 °F /  -10.9 °C 11.5 °F /  -11.4 °C 1018.2 in /  34476.3 hPa SW 14.3 mph /  23 km/h 19.3 mph /  31.1 km/h 95 % 0.0 in /  0 mm
18:38 12.2 °F /  -11 °C 11.4 °F /  -11.4 °C 1018.2 in /  34476.3 hPa SW 3.2 mph /  5.1 km/h 16.1 mph /  25.9 km/h 95 % 0.0 in /  0 mm
18:44 12.1 °F /  -11.1 °C 11.3 °F /  -11.5 °C 1018.2 in /  34476.3 hPa West 9.7 mph /  15.6 km/h 14.5 mph /  23.3 km/h 95 % 0.3 in /  7.62 mm
18:50 12.1 °F /  -11.1 °C 11.3 °F /  -11.5 °C 1018.2 in /  34476.3 hPa West 14.3 mph /  23 km/h 27.4 mph /  44.1 km/h 95 % 0.3 in /  7.62 mm
18:56 12.1 °F /  -11.1 °C 11.3 °F /  -11.5 °C 1018.5 in /  34486.4 hPa WSW 9.7 mph /  15.6 km/h 19.3 mph /  31.1 km/h 95 % 0.3 in /  7.62 mm
19:02 12.1 °F /  -11.1 °C 11.3 °F /  -11.5 °C 1018.5 in /  34486.4 hPa West 3.2 mph /  5.1 km/h 14.5 mph /  23.3 km/h 95 % 0.3 in /  7.62 mm
19:08 12.1 °F /  -11.1 °C 11.3 °F /  -11.5 °C 1018.8 in /  34496.6 hPa NW 6.4 mph /  10.3 km/h 11.3 mph /  18.2 km/h 95 % 0.3 in /  7.62 mm
19:14 12.0 °F /  -11.1 °C 11.2 °F /  -11.6 °C 1018.8 in /  34496.6 hPa WNW 4.7 mph /  7.6 km/h 9.7 mph /  15.6 km/h 95 % 0.3 in /  7.62 mm
19:20 11.9 °F /  -11.2 °C 11.1 °F /  -11.6 °C 1018.8 in /  34496.6 hPa West 3.2 mph /  5.1 km/h 6.4 mph /  10.3 km/h 95 % 0.3 in /  7.62 mm
19:26 11.8 °F /  -11.2 °C 11.0 °F /  -11.7 °C 1018.8 in /  34496.6 hPa WNW 3.2 mph /  5.1 km/h 6.4 mph /  10.3 km/h 95 % 0.3 in /  7.62 mm
19:32 11.8 °F /  -11.2 °C 11.0 °F /  -11.7 °C 1019.2 in /  34510.1 hPa WNW 1.4 mph /  2.3 km/h 4.8 mph /  7.7 km/h 95 % 0.3 in /  7.62 mm
19:38 11.7 °F /  -11.3 °C 10.9 °F /  -11.7 °C 1019.2 in /  34510.1 hPa West 3.2 mph /  5.1 km/h 6.4 mph /  10.3 km/h 95 % 0.3 in /  7.62 mm
19:44 11.6 °F /  -11.3 °C 10.8 °F /  -11.8 °C 1019.2 in /  34510.1 hPa West 3.2 mph /  5.1 km/h 9.7 mph /  15.6 km/h 95 % 0.0 in /  0 mm
19:50 11.5 °F /  -11.4 °C 10.7 °F /  -11.8 °C 1019.2 in /  34510.1 hPa WNW 4.7 mph /  7.6 km/h 14.5 mph /  23.3 km/h 95 % 0.3 in /  7.62 mm
19:56 11.4 °F /  -11.4 °C 10.6 °F /  -11.9 °C 1019.5 in /  34520.3 hPa WNW 11.1 mph /  17.9 km/h 11.3 mph /  18.2 km/h 95 % 0.5 in /  12.7 mm
20:02 11.3 °F /  -11.5 °C 10.5 °F /  -11.9 °C 1019.5 in /  34520.3 hPa WNW 3.2 mph /  5.1 km/h 4.8 mph /  7.7 km/h 95 % 0.5 in /  12.7 mm
20:08 11.3 °F /  -11.5 °C 10.5 °F /  -11.9 °C 1019.5 in /  34520.3 hPa West 3.2 mph /  5.1 km/h 3.2 mph /  5.1 km/h 95 % 0.5 in /  12.7 mm
20:14 11.2 °F /  -11.6 °C 10.4 °F /  -12 °C 1019.5 in /  34520.3 hPa West 4.7 mph /  7.6 km/h 4.8 mph /  7.7 km/h 95 % 0.5 in /  12.7 mm
20:20 11.2 °F /  -11.6 °C 10.4 °F /  -12 °C 1019.5 in /  34520.3 hPa WNW 1.4 mph /  2.3 km/h 6.4 mph /  10.3 km/h 95 % 0.5 in /  12.7 mm
20:26 11.1 °F /  -11.6 °C 10.3 °F /  -12.1 °C 1019.5 in /  34520.3 hPa WNW 1.4 mph /  2.3 km/h 3.2 mph /  5.1 km/h 95 % 0.5 in /  12.7 mm
20:32 11.1 °F /  -11.6 °C 10.3 °F /  -12.1 °C 1019.5 in /  34520.3 hPa WNW 1.4 mph /  2.3 km/h 1.6 mph /  2.6 km/h 95 % 0.5 in /  12.7 mm
20:38 11.0 °F /  -11.7 °C 10.2 °F /  -12.1 °C 1019.5 in /  34520.3 hPa Calm   1.6 mph /  2.6 km/h 95 % 0.5 in /  12.7 mm
20:44 10.9 °F /  -11.7 °C 10.3 °F /  -12.1 °C 1019.9 in /  34533.8 hPa Calm     96 % 0.5 in /  12.7 mm
20:51 10.9 °F /  -11.7 °C 10.3 °F /  -12.1 °C 1019.9 in /  34533.8 hPa Calm   1.6 mph /  2.6 km/h 96 % 0.3 in /  7.62 mm
20:57 10.9 °F /  -11.7 °C 10.3 °F /  -12.1 °C 1019.9 in /  34533.8 hPa Calm   1.6 mph /  2.6 km/h 96 % 0.0 in /  0 mm
21:03 10.8 °F /  -11.8 °C 10.2 °F /  -12.1 °C 1019.9 in /  34533.8 hPa WSW 3.2 mph /  5.1 km/h 4.8 mph /  7.7 km/h 96 % 0.0 in /  0 mm
21:09 10.7 °F /  -11.8 °C 10.1 °F /  -12.2 °C 1019.9 in /  34533.8 hPa West 3.2 mph /  5.1 km/h 9.7 mph /  15.6 km/h 96 % 0.0 in /  0 mm
21:15 10.7 °F /  -11.8 °C 10.1 °F /  -12.2 °C 1019.9 in /  34533.8 hPa West 1.4 mph /  2.3 km/h 4.8 mph /  7.7 km/h 96 % 0.0 in /  0 mm
21:21 10.6 °F /  -11.9 °C 10.0 °F /  -12.2 °C 1019.5 in /  34520.3 hPa Calm   3.2 mph /  5.1 km/h 96 % 0.0 in /  0 mm
21:27 10.4 °F /  -12 °C 9.8 °F /  -12.3 °C 1019.5 in /  34520.3 hPa West 1.4 mph /  2.3 km/h 4.8 mph /  7.7 km/h 96 % 0.0 in /  0 mm
21:33 10.4 °F /  -12 °C 9.8 °F /  -12.3 °C 1019.9 in /  34533.8 hPa WSW 3.2 mph /  5.1 km/h 8.0 mph /  12.9 km/h 96 % 0.0 in /  0 mm
21:39 10.3 °F /  -12.1 °C 9.5 °F /  -12.5 °C 1019.9 in /  34533.8 hPa West 6.4 mph /  10.3 km/h 9.7 mph /  15.6 km/h 95 % 0.0 in /  0 mm
21:45 10.3 °F /  -12.1 °C 9.4 °F /  -12.6 °C 1019.9 in /  34533.8 hPa WSW 4.7 mph /  7.6 km/h 6.4 mph /  10.3 km/h 94 % 0.0 in /  0 mm
21:51 10.3 °F /  -12.1 °C 9.4 °F /  -12.6 °C 1020.2 in /  34544 hPa WSW 4.7 mph /  7.6 km/h 9.7 mph /  15.6 km/h 94 % 0.0 in /  0 mm
21:57 10.3 °F /  -12.1 °C 9.4 °F /  -12.6 °C 1020.2 in /  34544 hPa WSW 6.4 mph /  10.3 km/h 11.3 mph /  18.2 km/h 94 % 0.0 in /  0 mm
22:03 10.3 °F /  -12.1 °C 9.4 °F /  -12.6 °C 1020.2 in /  34544 hPa West 6.4 mph /  10.3 km/h 12.9 mph /  20.8 km/h 94 % 0.0 in /  0 mm
22:09 10.2 °F /  -12.1 °C 9.3 °F /  -12.6 °C 1020.5 in /  34554.1 hPa WNW 9.7 mph /  15.6 km/h 12.9 mph /  20.8 km/h 94 % 0.0 in /  0 mm
22:15 10.1 °F /  -12.2 °C 9.2 °F /  -12.7 °C 1020.5 in /  34554.1 hPa West 16.3 mph /  26.2 km/h 22.5 mph /  36.2 km/h 94 % 0.0 in /  0 mm
22:21 9.9 °F /  -12.3 °C 9.0 °F /  -12.8 °C 1020.9 in /  34567.7 hPa NW 13.0 mph /  20.9 km/h 14.5 mph /  23.3 km/h 94 % 0.0 in /  0 mm
22:29 9.7 °F /  -12.4 °C 8.8 °F /  -12.9 °C 1020.9 in /  34567.7 hPa NW 6.4 mph /  10.3 km/h 16.1 mph /  25.9 km/h 94 % 0.0 in /  0 mm
22:35 9.6 °F /  -12.4 °C 8.7 °F /  -12.9 °C 1020.9 in /  34567.7 hPa NW 9.7 mph /  15.6 km/h 12.9 mph /  20.8 km/h 94 % 0.0 in /  0 mm
22:41 9.6 °F /  -12.4 °C 8.7 °F /  -12.9 °C 1020.9 in /  34567.7 hPa NNE 3.2 mph /  5.1 km/h 16.1 mph /  25.9 km/h 94 % 0.0 in /  0 mm
22:47 9.4 °F /  -12.6 °C 8.5 °F /  -13.1 °C 1021.2 in /  34577.8 hPa WNW 7.9 mph /  12.7 km/h 12.9 mph /  20.8 km/h 94 % 0.0 in /  0 mm
22:53 9.4 °F /  -12.6 °C 8.6 °F /  -13 °C 1021.2 in /  34577.8 hPa NW 3.2 mph /  5.1 km/h 8.0 mph /  12.9 km/h 95 % 0.0 in /  0 mm
22:59 9.3 °F /  -12.6 °C 8.5 °F /  -13.1 °C 1021.2 in /  34577.8 hPa WNW 1.4 mph /  2.3 km/h 8.0 mph /  12.9 km/h 95 % 0.0 in /  0 mm
23:05 9.3 °F /  -12.6 °C 8.5 °F /  -13.1 °C 1021.2 in /  34577.8 hPa WSW 4.7 mph /  7.6 km/h 9.7 mph /  15.6 km/h 95 % 0.0 in /  0 mm
23:11 9.3 °F /  -12.6 °C 8.5 °F /  -13.1 °C 1021.2 in /  34577.8 hPa NW 3.2 mph /  5.1 km/h 11.3 mph /  18.2 km/h 95 % 0.0 in /  0 mm
23:17 9.2 °F /  -12.7 °C 8.4 °F /  -13.1 °C 1021.2 in /  34577.8 hPa NW 3.2 mph /  5.1 km/h 6.4 mph /  10.3 km/h 95 % 0.0 in /  0 mm
23:23 9.2 °F /  -12.7 °C 8.4 °F /  -13.1 °C 1021.2 in /  34577.8 hPa WNW 4.7 mph /  7.6 km/h 9.7 mph /  15.6 km/h 95 % 0.0 in /  0 mm
23:29 9.1 °F /  -12.7 °C 8.3 °F /  -13.2 °C 1021.2 in /  34577.8 hPa North 6.4 mph /  10.3 km/h 11.3 mph /  18.2 km/h 95 % 0.0 in /  0 mm
23:35 9.1 °F /  -12.7 °C 8.3 °F /  -13.2 °C 1021.6 in /  34591.4 hPa NW 3.2 mph /  5.1 km/h 9.7 mph /  15.6 km/h 95 % 0.0 in /  0 mm
23:41 9.1 °F /  -12.7 °C 8.3 °F /  -13.2 °C 1021.6 in /  34591.4 hPa WNW 4.7 mph /  7.6 km/h 6.4 mph /  10.3 km/h 95 % 0.0 in /  0 mm
23:47 9.1 °F /  -12.7 °C 8.3 °F /  -13.2 °C 1021.6 in /  34591.4 hPa WNW 4.7 mph /  7.6 km/h 4.8 mph /  7.7 km/h 95 % 0.0 in /  0 mm
23:53 9.0 °F /  -12.8 °C 8.2 °F /  -13.2 °C 1021.6 in /  34591.4 hPa WNW 4.7 mph /  7.6 km/h 6.4 mph /  10.3 km/h 95 % 0.0 in /  0 mm
23:59 9.0 °F /  -12.8 °C 8.2 °F /  -13.2 °C 1021.6 in /  34591.4 hPa WNW 4.7 mph /  7.6 km/h 6.4 mph /  10.3 km/h 95 % 0.0 in /  0 mm
Meteo18
Compliments of Weather Underground - 4 mb

Script developed by  Jim McMurry - jmcmurry@mwt.net Adapted for the template by  Wim van der Kuil - Leuven-Template.eu

You find our weather info also at:

European Weather Network

Weather Underground

Equipment we use:

Weather-station
Davis Vue

Weather-program
Meteobridge

Weather-server
Raspberry PI 2 B+

Provider
1 and 1

Davis Vue

Meteobridge

Raspberry PI 2 B+

1 and 1